createdAt,value
2022-09-11T00:00:23.062Z,79.47
2022-09-11T00:05:25.969Z,80.07
2022-09-11T00:10:28.208Z,79.71
2022-09-11T00:15:30.505Z,80.22
2022-09-11T00:20:33.288Z,79.83
2022-09-11T00:25:36.389Z,79.99
2022-09-11T00:30:38.585Z,79.96
2022-09-11T00:35:41.341Z,80.09
2022-09-11T00:40:46.604Z,80.35
2022-09-11T00:45:55.542Z,80.33
2022-09-11T00:50:59.721Z,80.76
2022-09-11T00:56:05.801Z,80.21
2022-09-11T01:01:08.184Z,80.40
2022-09-11T01:06:11.072Z,80.42
2022-09-11T01:11:40.882Z,80.40
2022-09-11T01:16:49.235Z,80.60
2022-09-11T01:21:54.497Z,80.69
2022-09-11T01:26:59.289Z,80.58
2022-09-11T01:32:23.987Z,80.68
2022-09-11T01:37:38.241Z,80.47
2022-09-11T01:42:43.391Z,80.60
2022-09-11T01:47:49.539Z,80.65
2022-09-11T01:52:58.104Z,80.81
2022-09-11T01:58:13.697Z,80.99
2022-09-11T02:03:25.469Z,80.81
2022-09-11T02:08:44.196Z,81.08
2022-09-11T02:13:49.229Z,80.80
2022-09-11T02:19:05.556Z,81.04
2022-09-11T02:24:07.641Z,81.47
2022-09-11T02:29:10.359Z,81.39
2022-09-11T02:34:14.349Z,81.27
2022-09-11T02:39:53.937Z,81.37
2022-09-11T02:45:29.386Z,81.35
2022-09-11T02:50:49.872Z,81.13
2022-09-11T02:56:06.006Z,81.10
2022-09-11T03:01:11.941Z,81.22
2022-09-11T03:06:24.642Z,81.03
2022-09-11T03:11:26.242Z,81.09
2022-09-11T03:16:29.009Z,81.31
2022-09-11T03:21:30.701Z,81.19
2022-09-11T03:26:35.141Z,81.09
2022-09-11T03:31:39.266Z,80.86
2022-09-11T03:36:42.221Z,81.15
2022-09-11T03:41:44.119Z,81.17
2022-09-11T03:46:46.608Z,81.52
2022-09-11T03:51:48.286Z,81.58
2022-09-11T03:56:50.237Z,81.31
2022-09-11T04:01:52.903Z,81.39
2022-09-11T04:06:55.752Z,81.58
2022-09-11T04:11:58.533Z,81.47
2022-09-11T04:17:02.646Z,81.08
2022-09-11T04:22:04.327Z,81.32
2022-09-11T04:27:09.752Z,81.35
2022-09-11T04:32:11.843Z,81.06
2022-09-11T04:37:16.601Z,81.27
2022-09-11T04:42:18.498Z,81.50
2022-09-11T04:47:21.005Z,80.90
2022-09-11T04:52:23.248Z,81.02
2022-09-11T04:57:24.821Z,81.50
2022-09-11T05:02:26.982Z,81.33
2022-09-11T05:07:29.878Z,81.51
2022-09-11T05:12:33.893Z,81.45
2022-09-11T05:17:35.683Z,81.47
2022-09-11T05:22:39.028Z,81.50
2022-09-11T05:27:40.937Z,80.97
2022-09-11T05:32:42.912Z,80.71
2022-09-11T05:37:44.540Z,80.83
2022-09-11T05:42:46.421Z,80.46
2022-09-11T05:47:48.631Z,80.84
2022-09-11T05:52:51.257Z,80.82
2022-09-11T05:57:53.607Z,80.18
2022-09-11T06:02:56.406Z,80.40
2022-09-11T06:08:01.941Z,80.67
2022-09-11T06:13:04.334Z,80.20
2022-09-11T06:18:09.664Z,80.16
2022-09-11T06:23:12.282Z,80.22
2022-09-11T06:28:14.535Z,80.56
2022-09-11T06:33:17.122Z,80.38
2022-09-11T06:38:18.788Z,80.40
2022-09-11T06:43:21.343Z,80.60
2022-09-11T06:48:23.196Z,80.59
2022-09-11T06:53:25.069Z,81.35
2022-09-11T06:58:32.106Z,81.27
2022-09-11T07:03:33.988Z,81.04
2022-09-11T07:08:39.090Z,81.69
2022-09-11T07:13:42.030Z,81.11
2022-09-11T07:18:46.206Z,81.72
2022-09-11T07:23:55.693Z,81.56
2022-09-11T07:28:59.293Z,81.48
2022-09-11T07:34:02.794Z,82.60
2022-09-11T07:39:05.726Z,82.77
2022-09-11T07:44:18.437Z,82.87
2022-09-11T07:49:20.345Z,82.58
2022-09-11T07:54:23.320Z,82.78
2022-09-11T07:59:26.133Z,82.82
2022-09-11T08:04:28.989Z,82.70
2022-09-11T08:09:31.800Z,82.62
2022-09-11T08:14:38.025Z,82.53
2022-09-11T08:19:45.297Z,82.89
2022-09-11T08:24:48.380Z,83.54
2022-09-11T08:29:54.106Z,83.50
2022-09-11T08:34:56.765Z,82.99
2022-09-11T08:40:00.792Z,82.67
2022-09-11T08:45:07.690Z,82.30
2022-09-11T08:50:24.345Z,81.00
2022-09-11T08:55:37.345Z,79.14
2022-09-11T09:00:40.422Z,79.17
2022-09-11T09:05:45.987Z,78.98
2022-09-11T09:11:02.454Z,78.49
2022-09-11T09:16:23.698Z,77.60
2022-09-11T09:21:29.909Z,77.90
2022-09-11T09:26:40.732Z,77.42
2022-09-11T09:31:46.693Z,77.11
2022-09-11T09:36:57.714Z,77.20
2022-09-11T09:42:29.878Z,76.92
2022-09-11T09:47:33.198Z,77.30
2022-09-11T09:52:36.172Z,76.74
2022-09-11T09:57:41.929Z,76.82
2022-09-11T10:02:50.876Z,76.68
2022-09-11T10:07:53.833Z,76.58
2022-09-11T10:13:17.587Z,76.41
2022-09-11T10:18:25.972Z,76.02
2022-09-11T10:23:29.305Z,76.84
2022-09-11T10:28:33.459Z,75.96
2022-09-11T10:33:40.092Z,76.20
2022-09-11T10:38:45.079Z,76.68
2022-09-11T10:44:01.805Z,76.84
2022-09-11T10:49:03.553Z,77.73
2022-09-11T10:54:20.013Z,79.40
2022-09-11T10:59:28.848Z,80.18
2022-09-11T11:04:32.906Z,80.51
2022-09-11T11:09:59.429Z,80.59
2022-09-11T11:15:04.746Z,79.98
2022-09-11T11:20:31.713Z,79.46
2022-09-11T11:25:34.336Z,79.60
2022-09-11T11:30:47.549Z,79.22
2022-09-11T11:36:22.366Z,79.00
2022-09-11T11:41:29.298Z,78.44
2022-09-11T11:46:38.933Z,77.60
2022-09-11T11:52:26.341Z,77.14
2022-09-11T11:57:35.677Z,77.45
2022-09-11T12:02:49.619Z,76.44
2022-09-11T12:07:51.956Z,76.70
2022-09-11T12:12:58.595Z,75.93
2022-09-11T12:18:07.294Z,76.77
2022-09-11T12:23:50.354Z,76.03
2022-09-11T12:29:11.938Z,73.93
2022-09-11T12:34:26.345Z,74.29
2022-09-11T12:39:33.400Z,74.06
2022-09-11T12:44:47.134Z,73.04
2022-09-11T12:50:05.080Z,73.05
2022-09-11T12:55:33.248Z,72.54
2022-09-11T13:00:42.500Z,72.08
2022-09-11T13:05:45.418Z,70.92
2022-09-11T13:10:47.311Z,71.86
2022-09-11T13:15:58.081Z,71.83
2022-09-11T13:21:10.193Z,71.77
2022-09-11T13:26:20.361Z,71.29
2022-09-11T13:31:34.754Z,69.96
2022-09-11T13:36:37.465Z,69.33
2022-09-11T13:41:46.930Z,68.64
2022-09-11T13:46:51.820Z,69.94
2022-09-11T13:51:53.815Z,69.63
2022-09-11T13:56:55.525Z,67.84
2022-09-11T14:02:01.671Z,68.29
2022-09-11T14:07:03.283Z,67.17
2022-09-11T14:12:05.328Z,67.50
2022-09-11T14:17:11.013Z,67.00
2022-09-11T14:22:30.987Z,68.02
2022-09-11T14:27:35.342Z,67.50
2022-09-11T14:32:39.057Z,68.10
2022-09-11T14:37:45.730Z,67.70
2022-09-11T14:42:48.454Z,69.21
2022-09-11T14:47:51.041Z,70.00
2022-09-11T14:52:52.927Z,71.02
2022-09-11T14:57:54.677Z,70.74
2022-09-11T15:02:56.430Z,71.21
2022-09-11T15:08:00.298Z,71.57
2022-09-11T15:13:03.113Z,71.85
2022-09-11T15:18:07.745Z,71.60
2022-09-11T15:23:09.749Z,72.13
2022-09-11T15:28:11.651Z,71.97
2022-09-11T15:33:13.716Z,71.86
2022-09-11T15:38:15.726Z,72.61
2022-09-11T15:43:19.216Z,73.70
2022-09-11T15:48:21.467Z,74.29
2022-09-11T15:53:23.403Z,76.96
2022-09-11T15:58:24.994Z,78.16
2022-09-11T16:03:27.014Z,80.48
2022-09-11T16:08:28.556Z,80.73
2022-09-11T16:13:31.617Z,81.41
2022-09-11T16:18:38.390Z,81.32
2022-09-11T16:23:40.808Z,81.57
2022-09-11T16:28:42.395Z,81.93
2022-09-11T16:33:44.749Z,82.18
2022-09-11T16:38:48.324Z,82.48
2022-09-11T16:43:52.645Z,82.97
2022-09-11T16:48:59.812Z,83.32
2022-09-11T16:54:04.380Z,83.69
2022-09-11T16:59:06.962Z,83.87
2022-09-11T17:04:08.668Z,84.05
2022-09-11T17:09:10.573Z,84.56
2022-09-11T17:14:12.985Z,84.93
2022-09-11T17:19:14.989Z,84.95
2022-09-11T17:24:20.423Z,85.10
2022-09-11T17:29:22.690Z,85.05
2022-09-11T17:34:24.467Z,85.46
2022-09-11T17:39:26.350Z,85.29
2022-09-11T17:44:28.156Z,85.67
2022-09-11T17:49:31.998Z,85.68
2022-09-11T17:54:33.994Z,86.36
2022-09-11T17:59:36.682Z,86.38
2022-09-11T18:04:38.858Z,86.93
2022-09-11T18:09:40.482Z,86.92
2022-09-11T18:14:45.321Z,87.04
2022-09-11T18:19:47.478Z,87.67
2022-09-11T18:24:52.107Z,87.58
2022-09-11T18:29:54.625Z,87.87
2022-09-11T18:35:00.108Z,88.23
2022-09-11T18:40:02.262Z,88.19
2022-09-11T18:45:04.227Z,88.18
2022-09-11T18:50:06.718Z,88.52
2022-09-11T18:55:08.986Z,88.67
2022-09-11T19:00:15.466Z,88.26
2022-09-11T19:05:17.649Z,88.25
2022-09-11T19:10:19.454Z,88.50
2022-09-11T19:15:21.405Z,88.61
2022-09-11T19:20:23.185Z,88.64
2022-09-11T19:25:27.194Z,89.16
2022-09-11T19:30:29.174Z,89.17
2022-09-11T19:35:30.813Z,89.96
2022-09-11T19:40:32.665Z,90.99
2022-09-11T19:45:34.504Z,90.93
2022-09-11T19:50:42.974Z,91.40
2022-09-11T19:55:45.141Z,91.22
2022-09-11T20:00:47.151Z,92.00
2022-09-11T20:05:48.882Z,91.93
2022-09-11T20:10:50.704Z,91.89
2022-09-11T20:15:52.546Z,92.00
2022-09-11T20:20:54.181Z,92.30
2022-09-11T20:25:56.559Z,92.61
2022-09-11T20:31:00.381Z,92.77
2022-09-11T20:36:02.637Z,91.95
2022-09-11T20:41:12.996Z,92.10
2022-09-11T20:46:14.870Z,92.47
2022-09-11T20:51:17.265Z,91.85
2022-09-11T20:56:23.565Z,92.32
2022-09-11T21:01:34.566Z,92.31
2022-09-11T21:06:36.492Z,92.69
2022-09-11T21:11:39.864Z,92.15
2022-09-11T21:16:42.136Z,92.77
2022-09-11T21:21:44.213Z,92.35
2022-09-11T21:26:45.990Z,92.18
2022-09-11T21:31:48.086Z,92.14
2022-09-11T21:36:49.909Z,92.33
2022-09-11T21:41:51.619Z,91.88
2022-09-11T21:46:53.317Z,92.31
2022-09-11T21:51:55.181Z,92.33
2022-09-11T21:56:56.932Z,91.95
2022-09-11T22:01:58.694Z,91.87
2022-09-11T22:07:00.510Z,91.67
2022-09-11T22:12:02.257Z,91.49
2022-09-11T22:17:04.378Z,91.58
2022-09-11T22:22:06.999Z,91.68
2022-09-11T22:27:09.578Z,91.77
2022-09-11T22:32:11.511Z,91.43
2022-09-11T22:37:13.310Z,91.18
2022-09-11T22:42:15.211Z,91.26
2022-09-11T22:47:17.244Z,91.17
2022-09-11T22:52:18.815Z,91.24
2022-09-11T22:57:20.829Z,91.27
2022-09-11T23:02:22.611Z,90.81
2022-09-11T23:07:24.653Z,90.98
2022-09-11T23:12:26.553Z,90.81
2022-09-11T23:17:28.365Z,90.58
2022-09-11T23:22:30.214Z,90.70
2022-09-11T23:27:33.055Z,90.41
2022-09-11T23:32:38.657Z,90.69
2022-09-11T23:37:45.466Z,90.73
2022-09-11T23:42:47.461Z,90.60
2022-09-11T23:47:50.796Z,90.75
2022-09-11T23:52:52.828Z,90.50
2022-09-11T23:57:55.300Z,90.44
